createdAt,value
2023-05-02T00:00:10.631Z,88.42
2023-05-02T00:02:36.774Z,88.86
2023-05-02T00:05:04.540Z,88.45
2023-05-02T00:07:30.660Z,88.91
2023-05-02T00:09:59.141Z,89.26
2023-05-02T00:12:25.377Z,89.51
2023-05-02T00:14:51.501Z,89.79
2023-05-02T00:17:19.072Z,91.01
2023-05-02T00:19:45.834Z,90.63
2023-05-02T00:22:12.075Z,88.92
2023-05-02T00:24:38.128Z,88.55
2023-05-02T00:27:05.456Z,89.31
2023-05-02T00:29:31.581Z,90.20
2023-05-02T00:31:57.670Z,91.26
2023-05-02T00:34:28.555Z,93.15
2023-05-02T00:36:54.632Z,92.42
2023-05-02T00:39:20.695Z,92.58
2023-05-02T00:41:46.885Z,92.86
2023-05-02T00:44:13.033Z,95.73
2023-05-02T00:46:39.193Z,94.38
2023-05-02T00:49:05.386Z,94.42
2023-05-02T00:51:34.263Z,94.36
2023-05-02T00:54:01.039Z,94.41
2023-05-02T00:56:27.197Z,96.38
2023-05-02T00:58:53.712Z,97.47
2023-05-02T01:01:28.808Z,95.33
2023-05-02T01:04:01.657Z,95.71
2023-05-02T01:06:44.119Z,100.00
2023-05-02T01:09:34.683Z,100.00
2023-05-02T01:12:04.688Z,100.00
2023-05-02T01:14:34.729Z,100.00
2023-05-02T01:17:06.673Z,100.00
2023-05-02T01:19:35.905Z,100.00
2023-05-02T01:22:04.809Z,100.00
2023-05-02T01:24:40.608Z,100.00
2023-05-02T01:27:24.302Z,100.00
2023-05-02T01:29:51.410Z,100.00
2023-05-02T01:32:20.441Z,100.00
2023-05-02T01:34:47.109Z,100.00
2023-05-02T01:37:13.914Z,100.00
2023-05-02T01:39:40.609Z,100.00
2023-05-02T01:42:06.698Z,100.00
2023-05-02T01:44:35.137Z,100.00
2023-05-02T01:47:02.757Z,100.00
2023-05-02T01:49:28.998Z,100.00
2023-05-02T01:51:55.672Z,100.00
2023-05-02T01:54:23.161Z,100.00
2023-05-02T01:56:49.542Z,100.00
2023-05-02T01:59:18.462Z,100.00
2023-05-02T02:01:45.380Z,100.00
2023-05-02T02:04:14.191Z,100.00
2023-05-02T02:06:42.968Z,100.00
2023-05-02T02:09:09.166Z,100.00
2023-05-02T02:11:43.332Z,100.00
2023-05-02T02:14:17.037Z,100.00
2023-05-02T02:16:43.574Z,100.00
2023-05-02T02:19:10.583Z,100.00
2023-05-02T02:21:37.866Z,100.00
2023-05-02T02:24:06.174Z,100.00
2023-05-02T02:26:32.774Z,100.00
2023-05-02T02:29:00.363Z,100.00
2023-05-02T02:31:33.536Z,100.00
2023-05-02T02:34:00.271Z,100.00
2023-05-02T02:36:33.915Z,100.00
2023-05-02T02:39:07.966Z,100.00
2023-05-02T02:41:45.234Z,100.00
2023-05-02T02:44:17.397Z,100.00
2023-05-02T02:46:53.709Z,100.00
2023-05-02T02:49:39.324Z,100.00
2023-05-02T02:52:11.518Z,100.00
2023-05-02T02:54:44.861Z,100.00
2023-05-02T02:57:17.696Z,100.00
2023-05-02T02:59:53.063Z,100.00
2023-05-02T03:02:22.359Z,100.00
2023-05-02T03:04:50.883Z,100.00
2023-05-02T03:07:17.025Z,100.00
2023-05-02T03:09:44.697Z,100.00
2023-05-02T03:12:11.249Z,100.00
2023-05-02T03:14:38.204Z,100.00
2023-05-02T03:17:04.911Z,100.00
2023-05-02T03:19:31.099Z,100.00
2023-05-02T03:21:57.213Z,100.00
2023-05-02T03:24:23.409Z,100.00
2023-05-02T03:26:49.490Z,100.00
2023-05-02T03:29:15.762Z,100.00
2023-05-02T03:31:42.086Z,100.00
2023-05-02T03:34:08.197Z,100.00
2023-05-02T03:36:34.259Z,100.00
2023-05-02T03:39:00.373Z,100.00
2023-05-02T03:41:26.444Z,100.00
2023-05-02T03:43:52.487Z,100.00
2023-05-02T03:46:18.567Z,100.00
2023-05-02T03:48:45.911Z,100.00
2023-05-02T03:51:12.261Z,100.00
2023-05-02T03:53:38.376Z,100.00
2023-05-02T03:56:05.309Z,100.00
2023-05-02T03:58:31.420Z,100.00
2023-05-02T04:00:57.463Z,100.00
2023-05-02T04:03:23.630Z,100.00
2023-05-02T04:05:50.881Z,100.00
2023-05-02T04:08:17.890Z,100.00
2023-05-02T04:10:44.050Z,100.00
2023-05-02T04:13:10.170Z,100.00
2023-05-02T04:15:36.729Z,100.00
2023-05-02T04:18:03.071Z,100.00
2023-05-02T04:20:29.664Z,100.00
2023-05-02T04:22:55.945Z,100.00
2023-05-02T04:25:22.045Z,100.00
2023-05-02T04:27:48.204Z,100.00
2023-05-02T04:30:14.278Z,100.00
2023-05-02T04:32:40.411Z,100.00
2023-05-02T04:35:06.822Z,100.00
2023-05-02T04:37:32.893Z,100.00
2023-05-02T04:39:59.290Z,100.00
2023-05-02T04:42:25.620Z,100.00
2023-05-02T04:44:51.723Z,100.00
2023-05-02T04:47:17.791Z,100.00
2023-05-02T04:49:43.848Z,100.00
2023-05-02T04:52:09.955Z,100.00
2023-05-02T04:54:36.196Z,100.00
2023-05-02T04:57:03.096Z,100.00
2023-05-02T04:59:29.652Z,100.00
2023-05-02T05:01:56.622Z,100.00
2023-05-02T05:04:23.846Z,100.00
2023-05-02T05:06:50.082Z,100.00
2023-05-02T05:09:16.207Z,100.00
2023-05-02T05:11:42.897Z,100.00
2023-05-02T05:14:09.098Z,100.00
2023-05-02T05:16:35.209Z,100.00
2023-05-02T05:19:01.456Z,100.00
2023-05-02T05:21:27.769Z,100.00
2023-05-02T05:23:53.839Z,100.00
2023-05-02T05:26:20.666Z,100.00
2023-05-02T05:28:46.780Z,100.00
2023-05-02T05:31:16.931Z,100.00
2023-05-02T05:33:43.583Z,100.00
2023-05-02T05:36:11.915Z,100.00
2023-05-02T05:38:38.109Z,100.00
2023-05-02T05:41:04.856Z,100.00
2023-05-02T05:43:31.047Z,100.00
2023-05-02T05:45:57.170Z,100.00
2023-05-02T05:48:23.446Z,100.00
2023-05-02T05:50:51.298Z,100.00
2023-05-02T05:53:18.337Z,100.00
2023-05-02T05:55:44.725Z,100.00
2023-05-02T05:58:11.044Z,100.00
2023-05-02T06:00:37.809Z,100.00
2023-05-02T06:03:06.062Z,100.00
2023-05-02T06:05:34.152Z,100.00
2023-05-02T06:08:00.277Z,100.00
2023-05-02T06:10:26.435Z,100.00
2023-05-02T06:12:52.524Z,100.00
2023-05-02T06:15:18.659Z,100.00
2023-05-02T06:17:45.466Z,100.00
2023-05-02T06:20:11.763Z,100.00
2023-05-02T06:22:38.990Z,100.00
2023-05-02T06:25:05.733Z,100.00
2023-05-02T06:27:33.686Z,100.00
2023-05-02T06:30:00.236Z,100.00
2023-05-02T06:32:33.077Z,100.00
2023-05-02T06:34:59.318Z,100.00
2023-05-02T06:37:25.460Z,100.00
2023-05-02T06:39:51.551Z,100.00
2023-05-02T06:42:17.671Z,100.00
2023-05-02T06:44:43.754Z,100.00
2023-05-02T06:47:09.905Z,100.00
2023-05-02T06:49:36.024Z,100.00
2023-05-02T06:52:02.117Z,100.00
2023-05-02T06:54:28.301Z,100.00
2023-05-02T06:56:54.512Z,100.00
2023-05-02T06:59:20.641Z,100.00
2023-05-02T07:01:46.744Z,100.00
2023-05-02T07:04:12.882Z,100.00
2023-05-02T07:06:39.433Z,100.00
2023-05-02T07:09:05.565Z,100.00
2023-05-02T07:11:31.658Z,100.00
2023-05-02T07:13:57.737Z,100.00
2023-05-02T07:16:23.946Z,100.00
2023-05-02T07:18:50.143Z,100.00
2023-05-02T07:21:18.382Z,100.00
2023-05-02T07:23:44.586Z,100.00
2023-05-02T07:26:10.734Z,100.00
2023-05-02T07:28:36.882Z,100.00
2023-05-02T07:31:03.474Z,100.00
2023-05-02T07:33:29.686Z,100.00
2023-05-02T07:35:56.046Z,100.00
2023-05-02T07:38:22.120Z,100.00
2023-05-02T07:40:48.200Z,100.00
2023-05-02T07:43:15.325Z,100.00
2023-05-02T07:45:41.431Z,100.00
2023-05-02T07:48:07.589Z,100.00
2023-05-02T07:50:33.731Z,100.00
2023-05-02T07:52:59.893Z,100.00
2023-05-02T07:55:26.575Z,100.00
2023-05-02T07:57:52.905Z,100.00
2023-05-02T08:00:19.113Z,100.00
2023-05-02T08:02:45.741Z,100.00
2023-05-02T08:05:12.064Z,100.00
2023-05-02T08:07:38.274Z,100.00
2023-05-02T08:10:07.990Z,100.00
2023-05-02T08:12:39.352Z,100.00
2023-05-02T08:15:11.262Z,100.00
2023-05-02T08:17:37.421Z,100.00
2023-05-02T08:20:03.847Z,100.00
2023-05-02T08:22:29.968Z,100.00
2023-05-02T08:24:56.030Z,100.00
2023-05-02T08:27:22.089Z,100.00
2023-05-02T08:29:48.196Z,100.00
2023-05-02T08:32:14.360Z,100.00
2023-05-02T08:34:40.469Z,100.00
2023-05-02T08:37:10.067Z,100.00
2023-05-02T08:39:36.179Z,100.00
2023-05-02T08:42:08.635Z,100.00
2023-05-02T08:44:34.782Z,100.00
2023-05-02T08:47:01.364Z,100.00
2023-05-02T08:49:28.985Z,100.00
2023-05-02T08:51:55.992Z,100.00
2023-05-02T08:54:24.928Z,100.00
2023-05-02T08:56:53.227Z,100.00
2023-05-02T08:59:19.627Z,100.00
2023-05-02T09:01:49.071Z,100.00
2023-05-02T09:04:15.731Z,100.00
2023-05-02T09:06:41.983Z,100.00
2023-05-02T09:09:08.089Z,100.00
2023-05-02T09:11:34.180Z,100.00
2023-05-02T09:14:03.300Z,100.00
2023-05-02T09:16:29.985Z,100.00
2023-05-02T09:18:57.546Z,100.00
2023-05-02T09:21:24.810Z,100.00
2023-05-02T09:23:54.995Z,100.00
2023-05-02T09:26:30.327Z,100.00
2023-05-02T09:28:59.516Z,100.00
2023-05-02T09:31:49.875Z,100.00
2023-05-02T09:34:15.526Z,100.00
2023-05-02T09:36:45.487Z,100.00
2023-05-02T09:39:17.043Z,100.00
2023-05-02T09:41:44.778Z,100.00
2023-05-02T09:44:12.532Z,100.00
2023-05-02T09:46:40.990Z,100.00
2023-05-02T09:49:09.215Z,100.00
2023-05-02T09:51:35.549Z,100.00
2023-05-02T09:54:02.593Z,100.00
2023-05-02T09:56:28.735Z,100.00
2023-05-02T09:59:16.406Z,100.00
2023-05-02T10:01:42.748Z,100.00
2023-05-02T10:04:15.631Z,100.00
2023-05-02T10:06:45.267Z,100.00
2023-05-02T10:09:15.424Z,100.00
2023-05-02T10:11:44.824Z,100.00
2023-05-02T10:14:11.715Z,100.00
2023-05-02T10:16:59.554Z,100.00
2023-05-02T10:20:04.653Z,100.00
2023-05-02T10:22:31.209Z,100.00
2023-05-02T10:24:57.880Z,100.00
2023-05-02T10:27:25.000Z,100.00
2023-05-02T10:29:51.219Z,100.00
2023-05-02T10:32:17.664Z,100.00
2023-05-02T10:34:45.765Z,100.00
2023-05-02T10:37:11.933Z,100.00
2023-05-02T10:39:38.228Z,100.00
2023-05-02T10:42:05.773Z,100.00
2023-05-02T10:44:33.778Z,100.00
2023-05-02T10:47:00.290Z,100.00
2023-05-02T10:49:26.712Z,100.00
2023-05-02T10:51:52.906Z,100.00
2023-05-02T10:54:22.840Z,100.00
2023-05-02T10:57:08.611Z,100.00
2023-05-02T10:59:37.073Z,100.00
2023-05-02T11:02:06.998Z,100.00
2023-05-02T11:04:58.713Z,100.00
2023-05-02T11:07:24.931Z,100.00
2023-05-02T11:09:51.003Z,100.00
2023-05-02T11:12:50.044Z,100.00
2023-05-02T11:15:28.204Z,100.00
2023-05-02T11:18:06.754Z,100.00
2023-05-02T11:20:34.011Z,100.00
2023-05-02T11:23:15.575Z,100.00
2023-05-02T11:25:53.425Z,100.00
2023-05-02T11:28:37.945Z,100.00
2023-05-02T11:31:09.306Z,100.00
2023-05-02T11:33:35.779Z,100.00
2023-05-02T11:36:02.022Z,100.00
2023-05-02T11:38:36.890Z,100.00
2023-05-02T11:41:03.631Z,100.00
2023-05-02T11:43:32.592Z,100.00
2023-05-02T11:46:00.828Z,100.00
2023-05-02T11:48:27.406Z,100.00
2023-05-02T11:50:54.585Z,100.00
2023-05-02T11:53:28.642Z,100.00
2023-05-02T11:55:57.207Z,100.00
2023-05-02T11:58:25.511Z,100.00
2023-05-02T12:00:52.237Z,100.00
2023-05-02T12:03:29.194Z,100.00
2023-05-02T12:05:56.385Z,100.00
2023-05-02T12:08:27.638Z,100.00
2023-05-02T12:10:55.254Z,100.00
2023-05-02T12:13:23.569Z,100.00
2023-05-02T12:15:51.093Z,100.00
2023-05-02T12:18:20.116Z,100.00
2023-05-02T12:20:47.597Z,100.00
2023-05-02T12:23:13.792Z,100.00
2023-05-02T12:25:40.824Z,100.00
2023-05-02T12:28:08.000Z,100.00
2023-05-02T12:30:37.592Z,100.00
2023-05-02T12:33:05.650Z,100.00
2023-05-02T12:35:32.704Z,100.00
2023-05-02T12:38:13.083Z,100.00
2023-05-02T12:40:46.080Z,100.00
2023-05-02T12:43:12.178Z,100.00
2023-05-02T12:45:38.550Z,100.00
2023-05-02T12:48:25.727Z,100.00
2023-05-02T12:50:53.984Z,100.00
2023-05-02T12:53:43.055Z,100.00
2023-05-02T12:56:10.578Z,100.00
2023-05-02T12:58:41.261Z,100.00
2023-05-02T13:01:07.685Z,100.00
2023-05-02T13:03:33.863Z,100.00
2023-05-02T13:06:00.214Z,100.00
2023-05-02T13:08:26.340Z,100.00
2023-05-02T13:10:52.522Z,100.00
2023-05-02T13:13:18.781Z,100.00
2023-05-02T13:15:45.048Z,100.00
2023-05-02T13:18:11.463Z,100.00
2023-05-02T13:20:37.668Z,100.00
2023-05-02T13:23:04.349Z,100.00
2023-05-02T13:25:30.484Z,100.00
2023-05-02T13:27:57.670Z,98.95
2023-05-02T13:30:23.754Z,96.84
2023-05-02T13:32:49.983Z,98.48
2023-05-02T13:35:16.271Z,95.62
2023-05-02T13:37:42.340Z,100.00
2023-05-02T13:40:08.785Z,100.00
2023-05-02T13:42:35.043Z,100.00
2023-05-02T13:45:04.437Z,100.00
2023-05-02T13:47:30.802Z,100.00
2023-05-02T13:49:57.045Z,100.00
2023-05-02T13:52:23.127Z,100.00
2023-05-02T13:54:49.240Z,100.00
2023-05-02T13:57:15.417Z,99.99
2023-05-02T13:59:41.528Z,100.00
2023-05-02T14:02:07.766Z,100.00
2023-05-02T14:04:34.042Z,100.00
2023-05-02T14:07:00.276Z,100.00
2023-05-02T14:09:26.809Z,100.00
2023-05-02T14:11:52.982Z,100.00
2023-05-02T14:14:19.157Z,100.00
2023-05-02T14:16:45.320Z,100.00
2023-05-02T14:19:11.425Z,99.08
2023-05-02T14:21:38.021Z,100.00
2023-05-02T14:24:05.770Z,99.60
2023-05-02T14:26:32.590Z,98.34
2023-05-02T14:28:58.717Z,97.72
2023-05-02T14:31:24.817Z,96.38
2023-05-02T14:33:50.956Z,98.71
2023-05-02T14:36:31.164Z,96.23
2023-05-02T14:38:57.951Z,98.99
2023-05-02T14:41:24.488Z,100.00
2023-05-02T14:43:51.870Z,100.00
2023-05-02T14:46:18.004Z,98.06
2023-05-02T14:48:44.253Z,100.00
2023-05-02T14:51:10.344Z,100.00
2023-05-02T14:53:36.768Z,96.40
2023-05-02T14:56:03.066Z,95.38
2023-05-02T14:58:29.384Z,100.00
2023-05-02T15:00:55.563Z,98.95
2023-05-02T15:03:21.740Z,100.00
2023-05-02T15:05:48.014Z,100.00
2023-05-02T15:08:14.218Z,99.68
2023-05-02T15:10:40.374Z,97.64
2023-05-02T15:13:07.940Z,93.87
2023-05-02T15:15:34.247Z,93.84
2023-05-02T15:18:00.451Z,88.84
2023-05-02T15:20:26.594Z,87.90
2023-05-02T15:22:52.647Z,91.96
2023-05-02T15:25:18.786Z,88.38
2023-05-02T15:27:45.219Z,85.34
2023-05-02T15:30:11.593Z,86.17
2023-05-02T15:32:37.747Z,82.16
2023-05-02T15:35:07.209Z,83.92
2023-05-02T15:37:33.309Z,86.03
2023-05-02T15:40:00.029Z,85.69
2023-05-02T15:42:26.375Z,89.12
2023-05-02T15:44:53.319Z,85.39
2023-05-02T15:47:21.704Z,85.34
2023-05-02T15:49:51.004Z,81.82
2023-05-02T15:52:17.266Z,87.21
2023-05-02T15:54:43.334Z,85.53
2023-05-02T15:57:11.913Z,84.85
2023-05-02T15:59:38.400Z,92.25
2023-05-02T16:02:04.517Z,92.02
2023-05-02T16:04:34.133Z,90.03
2023-05-02T16:07:01.253Z,92.52
2023-05-02T16:09:27.661Z,86.10
2023-05-02T16:11:53.700Z,87.70
2023-05-02T16:14:23.143Z,89.63
2023-05-02T16:16:49.774Z,85.31
2023-05-02T16:19:15.855Z,87.80
2023-05-02T16:21:42.416Z,83.36
2023-05-02T16:24:09.102Z,81.62
2023-05-02T16:26:35.330Z,84.65
2023-05-02T16:29:01.568Z,83.80
2023-05-02T16:31:27.917Z,84.28
2023-05-02T16:33:54.436Z,83.13
2023-05-02T16:36:20.724Z,77.24
2023-05-02T16:38:46.884Z,76.69
2023-05-02T16:41:13.039Z,79.93
2023-05-02T16:43:39.365Z,76.19
2023-05-02T16:46:06.537Z,72.19
2023-05-02T16:48:33.650Z,75.52
2023-05-02T16:51:01.078Z,75.20
2023-05-02T16:53:29.818Z,75.72
2023-05-02T16:55:56.317Z,74.20
2023-05-02T16:58:23.976Z,80.19
2023-05-02T17:00:50.261Z,75.99
2023-05-02T17:03:16.486Z,75.70
2023-05-02T17:05:42.556Z,74.90
2023-05-02T17:08:09.866Z,71.91
2023-05-02T17:10:37.026Z,71.14
2023-05-02T17:13:03.509Z,68.53
2023-05-02T17:15:29.739Z,66.05
2023-05-02T17:17:55.864Z,65.71
2023-05-02T17:20:22.003Z,69.58
2023-05-02T17:22:48.079Z,68.37
2023-05-02T17:25:14.164Z,66.38
2023-05-02T17:27:41.062Z,65.98
2023-05-02T17:30:08.137Z,66.43
2023-05-02T17:32:36.665Z,63.19
2023-05-02T17:35:03.079Z,61.28
2023-05-02T17:37:29.451Z,61.27
2023-05-02T17:39:55.591Z,60.51
2023-05-02T17:42:21.654Z,59.39
2023-05-02T17:44:47.773Z,60.12
2023-05-02T17:47:13.908Z,61.58
2023-05-02T17:49:40.021Z,63.34
2023-05-02T17:52:06.092Z,64.06
2023-05-02T17:54:32.211Z,60.88
2023-05-02T17:56:58.401Z,61.52
2023-05-02T17:59:24.626Z,59.10
2023-05-02T18:01:51.208Z,60.10
2023-05-02T18:04:18.494Z,60.23
2023-05-02T18:06:44.665Z,61.66
2023-05-02T18:09:11.581Z,66.92
2023-05-02T18:11:37.908Z,65.98
2023-05-02T18:14:05.327Z,64.30
2023-05-02T18:16:33.496Z,64.18
2023-05-02T18:19:00.524Z,66.93
2023-05-02T18:21:27.483Z,64.89
2023-05-02T18:23:54.320Z,67.91
2023-05-02T18:26:20.417Z,66.06
2023-05-02T18:28:52.296Z,65.54
2023-05-02T18:31:21.398Z,65.63
2023-05-02T18:33:47.615Z,63.42
2023-05-02T18:36:18.296Z,63.51
2023-05-02T18:38:44.491Z,63.15
2023-05-02T18:41:10.621Z,63.93
2023-05-02T18:43:36.858Z,62.05
2023-05-02T18:46:03.191Z,62.35
2023-05-02T18:48:29.529Z,64.02
2023-05-02T18:50:56.187Z,65.04
2023-05-02T18:53:25.540Z,62.62
2023-05-02T18:55:53.035Z,63.17
2023-05-02T18:58:19.777Z,62.01
2023-05-02T19:00:46.035Z,60.68
2023-05-02T19:03:12.480Z,61.05
2023-05-02T19:05:39.475Z,60.15
2023-05-02T19:08:06.769Z,58.45
2023-05-02T19:10:33.614Z,59.33
2023-05-02T19:13:02.889Z,59.00
2023-05-02T19:15:29.092Z,58.67
2023-05-02T19:17:55.730Z,58.12
2023-05-02T19:20:22.183Z,57.69
2023-05-02T19:22:49.209Z,58.59
2023-05-02T19:25:15.325Z,58.83
2023-05-02T19:27:43.494Z,58.23
2023-05-02T19:30:10.122Z,58.69
2023-05-02T19:32:36.304Z,58.03
2023-05-02T19:35:03.777Z,58.31
2023-05-02T19:37:30.063Z,58.28
2023-05-02T19:39:56.393Z,58.21
2023-05-02T19:42:22.520Z,57.89
2023-05-02T19:44:49.139Z,58.15
2023-05-02T19:47:15.221Z,58.38
2023-05-02T19:49:43.097Z,57.14
2023-05-02T19:52:09.903Z,56.82
2023-05-02T19:54:36.023Z,57.29
2023-05-02T19:57:02.949Z,57.44
2023-05-02T19:59:29.070Z,57.35
2023-05-02T20:01:55.157Z,57.25
2023-05-02T20:04:24.263Z,57.22
2023-05-02T20:06:50.728Z,59.16
2023-05-02T20:09:16.891Z,60.96
2023-05-02T20:11:42.941Z,60.82
2023-05-02T20:14:09.004Z,60.41
2023-05-02T20:16:35.183Z,59.90
2023-05-02T20:19:01.296Z,60.23
2023-05-02T20:21:27.373Z,61.82
2023-05-02T20:23:53.447Z,63.54
2023-05-02T20:26:20.381Z,70.79
2023-05-02T20:28:46.521Z,70.18
2023-05-02T20:31:12.636Z,66.66
2023-05-02T20:33:45.244Z,67.30
2023-05-02T20:36:13.969Z,67.88
2023-05-02T20:38:41.461Z,64.31
2023-05-02T20:41:10.889Z,67.29
2023-05-02T20:43:39.051Z,67.03
2023-05-02T20:46:10.543Z,64.54
2023-05-02T20:48:36.948Z,64.44
2023-05-02T20:51:03.276Z,64.04
2023-05-02T20:53:29.382Z,65.43
2023-05-02T20:55:55.439Z,65.55
2023-05-02T20:58:21.555Z,68.35
2023-05-02T21:00:51.563Z,68.19
2023-05-02T21:03:21.237Z,68.35
2023-05-02T21:05:54.363Z,70.42
2023-05-02T21:08:20.721Z,70.49
2023-05-02T21:10:46.885Z,66.83
2023-05-02T21:13:13.251Z,66.55
2023-05-02T21:15:39.990Z,71.91
2023-05-02T21:18:06.528Z,73.21
2023-05-02T21:20:33.066Z,71.57
2023-05-02T21:22:59.201Z,67.15
2023-05-02T21:25:25.318Z,66.22
2023-05-02T21:27:52.203Z,65.26
2023-05-02T21:30:18.334Z,66.29
2023-05-02T21:32:45.127Z,65.20
2023-05-02T21:35:11.530Z,65.14
2023-05-02T21:37:37.694Z,65.83
2023-05-02T21:40:04.586Z,65.75
2023-05-02T21:42:31.115Z,65.50
2023-05-02T21:44:57.693Z,66.46
2023-05-02T21:47:23.791Z,68.84
2023-05-02T21:49:49.873Z,67.41
2023-05-02T21:52:15.941Z,73.23
2023-05-02T21:54:42.010Z,70.94
2023-05-02T21:57:08.065Z,68.49
2023-05-02T21:59:34.117Z,74.88
2023-05-02T22:02:00.253Z,71.94
2023-05-02T22:04:26.334Z,70.36
2023-05-02T22:06:52.804Z,68.48
2023-05-02T22:09:20.058Z,72.04
2023-05-02T22:11:46.499Z,70.32
2023-05-02T22:14:12.563Z,68.49
2023-05-02T22:16:41.591Z,69.90
2023-05-02T22:19:10.049Z,71.77
2023-05-02T22:21:36.143Z,68.09
2023-05-02T22:24:02.209Z,71.46
2023-05-02T22:26:28.271Z,68.74
2023-05-02T22:28:54.340Z,67.77
2023-05-02T22:31:20.773Z,68.22
2023-05-02T22:33:49.157Z,68.51
2023-05-02T22:36:16.775Z,68.70
2023-05-02T22:38:43.074Z,68.42
2023-05-02T22:41:09.378Z,69.37
2023-05-02T22:43:35.940Z,69.37
2023-05-02T22:46:02.161Z,70.40
2023-05-02T22:48:28.620Z,71.16
2023-05-02T22:50:54.668Z,71.49
2023-05-02T22:53:25.364Z,71.21
2023-05-02T22:55:51.706Z,71.53
2023-05-02T22:58:17.790Z,73.00
2023-05-02T23:00:43.883Z,72.27
2023-05-02T23:03:10.775Z,72.10
2023-05-02T23:05:36.931Z,72.41
2023-05-02T23:08:03.068Z,71.82
2023-05-02T23:10:29.168Z,71.69
2023-05-02T23:12:55.513Z,72.80
2023-05-02T23:15:21.628Z,72.83
2023-05-02T23:17:48.026Z,72.05
2023-05-02T23:20:18.695Z,75.27
2023-05-02T23:22:45.465Z,76.47
2023-05-02T23:25:12.206Z,75.45
2023-05-02T23:27:38.343Z,75.35
2023-05-02T23:30:05.368Z,75.80
2023-05-02T23:32:31.673Z,76.63
2023-05-02T23:34:57.763Z,76.01
2023-05-02T23:37:23.860Z,75.98
2023-05-02T23:39:50.343Z,74.56
2023-05-02T23:42:16.457Z,76.80
2023-05-02T23:44:43.081Z,76.86
2023-05-02T23:47:10.076Z,77.08
2023-05-02T23:49:36.525Z,79.17
2023-05-02T23:52:02.655Z,82.24
2023-05-02T23:54:31.940Z,79.98
2023-05-02T23:56:59.965Z,79.02
2023-05-02T23:59:26.029Z,80.94
